Time;durP1;ratioP1;P1;durP2;ratioP2;P2;SDS_P1;SDS_P2;PMS_P1;PMS_P2;Temp;Humidity;BMP_temperature;BMP_pressure;BME280_temperature;BME280_humidity;BME280_pressure;Samples;Min_cycle;Max_cycle;Signal;HPM_P1;HPM_P2
2024/01/14 00:01:36;;;;;;;14.65;11.80;;;;;;;18.35;37.25;101573.03;4966888;28;20066;-73
2024/01/14 00:04:01;;;;;;;13.35;10.77;;;;;;;18.38;37.27;101580.75;4965420;28;20376;-70
2024/01/14 00:06:27;;;;;;;15.40;11.02;;;;;;;18.27;37.37;101555.09;4966554;28;20031;-72
2024/01/14 00:08:52;;;;;;;13.15;10.80;;;;;;;18.28;37.43;101558.63;4966742;28;20127;-73
2024/01/14 00:11:17;;;;;;;14.52;11.07;;;;;;;18.37;37.18;101562.38;4966453;28;20444;-70
2024/01/14 00:13:42;;;;;;;13.55;10.52;;;;;;;18.27;37.18;101557.75;4966558;28;20117;-73
2024/01/14 00:16:08;;;;;;;14.52;11.15;;;;;;;18.24;37.11;101550.03;4966843;28;20047;-72
2024/01/14 00:18:33;;;;;;;15.90;11.32;;;;;;;18.27;37.10;101554.28;4968619;28;20097;-71
2024/01/14 00:20:58;;;;;;;13.30;10.60;;;;;;;18.28;37.04;101555.97;4970427;28;20034;-70
2024/01/14 00:23:24;;;;;;;16.42;11.18;;;;;;;18.29;36.89;101558.50;4970726;28;20077;-72
2024/01/14 00:25:49;;;;;;;14.98;11.50;;;;;;;18.25;37.03;101556.19;4971081;28;20198;-72
2024/01/14 00:28:14;;;;;;;14.20;10.93;;;;;;;18.25;37.04;101550.91;4969317;28;20050;-74
2024/01/14 00:30:39;;;;;;;14.13;11.07;;;;;;;18.24;37.16;101549.22;4970838;28;20092;-73
2024/01/14 00:33:05;;;;;;;14.00;10.65;;;;;;;18.21;36.73;101550.25;4970980;28;20320;-73
2024/01/14 00:35:30;;;;;;;14.60;11.07;;;;;;;18.14;36.95;101533.19;4971027;28;20333;-74
2024/01/14 00:37:55;;;;;;;14.07;10.73;;;;;;;18.19;37.23;101535.50;4970488;28;20279;-72
2024/01/14 00:40:20;;;;;;;14.43;11.73;;;;;;;18.20;36.82;101531.91;4968565;28;21336;-72
2024/01/14 00:42:46;;;;;;;14.55;11.35;;;;;;;18.11;36.75;101523.69;4970136;28;20037;-74
2024/01/14 00:45:11;;;;;;;15.23;11.32;;;;;;;18.08;36.92;101512.53;4969716;28;20034;-71
2024/01/14 00:47:36;;;;;;;13.50;10.95;;;;;;;18.12;36.82;101522.75;4969828;28;20062;-71
2024/01/14 00:50:02;;;;;;;14.55;11.60;;;;;;;18.12;36.93;101522.75;4969607;28;20062;-71
2024/01/14 00:52:27;;;;;;;13.85;10.75;;;;;;;18.07;36.72;101518.72;4969056;28;20105;-70
2024/01/14 00:54:53;;;;;;;15.48;11.35;;;;;;;18.10;36.59;101534.34;4970360;28;20035;-74
2024/01/14 00:57:18;;;;;;;14.45;11.10;;;;;;;18.09;37.06;101528.25;4970578;28;20030;-74
2024/01/14 00:59:43;;;;;;;14.25;11.00;;;;;;;18.01;36.75;101513.88;4970493;28;20042;-74
2024/01/14 01:02:08;;;;;;;13.75;11.35;;;;;;;17.99;36.77;101497.34;4969777;28;20125;-73
2024/01/14 01:04:34;;;;;;;14.65;10.38;;;;;;;18.05;36.91;101518.84;4969793;28;20383;-71
2024/01/14 01:06:59;;;;;;;13.45;10.52;;;;;;;18.04;36.94;101514.53;4970375;28;20486;-71
2024/01/14 01:09:24;;;;;;;14.75;11.18;;;;;;;17.98;36.92;101503.59;4970504;28;20471;-73
2024/01/14 01:11:50;;;;;;;13.88;11.18;;;;;;;18.05;36.94;101507.47;4969869;28;20066;-74
2024/01/14 01:14:15;;;;;;;13.45;10.80;;;;;;;18.02;36.80;101508.50;4970362;28;20717;-71
2024/01/14 01:16:41;;;;;;;14.43;11.10;;;;;;;18.04;36.59;101509.25;4969943;28;20130;-73
2024/01/14 01:19:06;;;;;;;13.60;11.07;;;;;;;18.03;36.40;101491.75;4970337;28;20126;-71
2024/01/14 01:21:31;;;;;;;13.55;10.38;;;;;;;17.95;36.77;101483.53;4969971;28;20038;-73
2024/01/14 01:23:57;;;;;;;13.98;11.07;;;;;;;17.99;36.85;101489.41;4969647;28;20109;-70
2024/01/14 01:26:23;;;;;;;15.05;10.98;;;;;;;17.94;36.49;101485.34;4969025;28;20114;-74
2024/01/14 01:28:48;;;;;;;13.80;11.02;;;;;;;17.90;36.44;101473.31;4969789;28;20037;-74
2024/01/14 01:31:13;;;;;;;13.93;11.50;;;;;;;17.94;36.59;101485.34;4968955;28;20042;-74
2024/01/14 01:33:39;;;;;;;14.38;11.45;;;;;;;17.94;36.51;101485.34;4969521;28;20073;-74
2024/01/14 01:36:06;;;;;;;13.32;10.90;;;;;;;17.96;36.38;101487.88;4969044;28;20030;-73
2024/01/14 01:38:31;;;;;;;13.95;10.90;;;;;;;17.84;36.31;101476.34;4969778;28;20054;-73
2024/01/14 01:40:57;;;;;;;14.60;10.82;;;;;;;17.88;36.37;101480.50;4969717;28;20380;-72
2024/01/14 01:43:22;;;;;;;14.05;10.82;;;;;;;17.88;36.15;101471.72;4969526;28;20034;-72
2024/01/14 01:45:48;;;;;;;14.57;11.73;;;;;;;17.93;36.33;101485.44;4969478;28;20084;-74
2024/01/14 01:48:13;;;;;;;15.00;12.45;;;;;;;17.91;36.21;101482.03;4969467;28;20643;-72
2024/01/14 01:50:40;;;;;;;15.93;12.15;;;;;;;17.79;36.58;101465.28;4969664;28;20030;-73
2024/01/14 01:53:07;;;;;;;16.13;11.65;;;;;;;17.90;36.41;101477.75;4969180;28;20061;-74
2024/01/14 01:55:33;;;;;;;13.63;11.65;;;;;;;17.86;36.46;101473.59;4969352;28;20472;-74
2024/01/14 01:57:58;;;;;;;16.42;11.45;;;;;;;17.80;36.48;101469.59;4969561;28;20027;-71
2024/01/14 02:00:24;;;;;;;14.48;11.57;;;;;;;17.87;36.73;101484.03;4969609;28;21323;-73
2024/01/14 02:02:50;;;;;;;15.02;11.80;;;;;;;17.88;36.75;101485.75;4969000;28;20134;-74
2024/01/14 02:05:18;;;;;;;15.48;11.63;;;;;;;17.77;36.67;101457.47;4969172;28;20073;-74
2024/01/14 02:07:44;;;;;;;13.70;11.05;;;;;;;17.80;36.84;101461.69;4969329;28;20027;-73
2024/01/14 02:10:10;;;;;;;15.70;10.85;;;;;;;17.87;36.85;101472.66;4969131;28;20472;-71
2024/01/14 02:12:35;;;;;;;15.25;11.10;;;;;;;17.76;36.96;101450.50;4968995;28;20041;-73
2024/01/14 02:15:00;;;;;;;15.48;10.95;;;;;;;17.84;36.86;101455.25;4969078;28;20525;-71
2024/01/14 02:17:26;;;;;;;16.73;11.35;;;;;;;17.79;36.93;101454.72;4969116;28;20093;-71
2024/01/14 02:19:51;;;;;;;14.52;11.15;;;;;;;17.83;37.18;101452.72;4969172;28;20484;-71
2024/01/14 02:22:26;;;;;;;17.17;11.13;;;;;;;17.74;37.38;101448.94;4968926;28;20448;-74
2024/01/14 02:24:53;;;;;;;13.90;10.90;;;;;;;17.79;37.27;101459.16;4969140;28;20276;-73
2024/01/14 02:27:19;;;;;;;14.45;10.73;;;;;;;17.72;37.21;101449.03;4969090;28;20034;-74
2024/01/14 02:29:44;;;;;;;15.15;11.18;;;;;;;17.70;37.54;101448.28;4968611;28;20037;-73
2024/01/14 02:32:09;;;;;;;13.98;11.18;;;;;;;17.76;37.37;101458.41;4968598;28;20031;-72
2024/01/14 02:34:35;;;;;;;15.45;11.25;;;;;;;17.75;37.15;101459.38;4968945;28;20035;-70
2024/01/14 02:37:01;;;;;;;15.80;11.65;;;;;;;17.75;37.44;101454.09;4967787;28;20034;-71
2024/01/14 02:39:26;;;;;;;18.17;11.40;;;;;;;17.77;37.27;101448.72;4968441;28;20435;-72
2024/01/14 02:41:53;;;;;;;15.55;11.50;;;;;;;17.66;37.28;101438.94;4968200;28;20085;-72
2024/01/14 02:44:18;;;;;;;16.20;11.18;;;;;;;17.65;37.39;101423.22;4967202;28;20118;-73
2024/01/14 02:46:43;;;;;;;17.58;11.52;;;;;;;17.73;37.38;101444.59;4968467;28;20442;-73
2024/01/14 02:49:08;;;;;;;19.65;12.43;;;;;;;17.64;37.63;101424.16;4968572;28;20057;-73
2024/01/14 02:51:34;;;;;;;15.93;11.80;;;;;;;17.62;37.21;101415.53;4968502;28;20081;-71
2024/01/14 02:54:01;;;;;;;16.90;12.05;;;;;;;17.70;37.24;101421.09;4968006;28;20031;-72
2024/01/14 02:56:26;;;;;;;16.33;11.73;;;;;;;17.58;37.49;101391.19;4968146;28;20054;-72
2024/01/14 02:58:52;;;;;;;17.40;11.38;;;;;;;17.67;37.73;101398.41;4968393;28;20034;-73
2024/01/14 03:01:17;;;;;;;17.73;11.13;;;;;;;17.59;37.64;101396.34;4968339;28;20490;-71
2024/01/14 03:03:42;;;;;;;15.48;10.80;;;;;;;17.64;37.85;101406.56;4967444;28;20272;-71
2024/01/14 03:06:08;;;;;;;16.88;11.13;;;;;;;17.60;37.66;101389.28;4968250;28;21426;-72
2024/01/14 03:08:33;;;;;;;16.80;11.68;;;;;;;17.57;37.52;101385.06;4968637;28;20037;-72
2024/01/14 03:10:58;;;;;;;15.65;10.13;;;;;;;17.57;37.82;101379.78;4967948;28;20042;-72
2024/01/14 03:13:24;;;;;;;13.43;9.90;;;;;;;17.65;37.54;101395.06;4968529;28;20085;-75
2024/01/14 03:15:49;;;;;;;16.83;10.15;;;;;;;17.61;37.58;101385.69;4967958;28;20484;-72
2024/01/14 03:18:17;;;;;;;15.15;11.13;;;;;;;17.55;37.36;101371.16;4968085;28;20471;-73
2024/01/14 03:20:42;;;;;;;14.80;11.20;;;;;;;17.53;37.32;101370.41;4968061;28;20085;-71
2024/01/14 03:23:08;;;;;;;14.80;10.55;;;;;;;17.61;37.30;101375.16;4968060;28;20030;-74
2024/01/14 03:25:33;;;;;;;16.00;11.23;;;;;;;17.59;37.28;101377.91;4966714;28;20053;-74
2024/01/14 03:27:59;;;;;;;13.98;11.13;;;;;;;17.49;37.15;101358.41;4967313;28;20039;-71
2024/01/14 03:30:24;;;;;;;15.25;10.23;;;;;;;17.40;37.20;101336.19;4966644;28;20027;-72
2024/01/14 03:32:50;;;;;;;15.43;11.32;;;;;;;17.58;37.03;101365.66;4967153;28;20035;-72
2024/01/14 03:35:15;;;;;;;14.15;10.77;;;;;;;17.49;36.92;101350.50;4967148;28;20041;-71
2024/01/14 03:37:41;;;;;;;13.82;10.02;;;;;;;17.41;36.91;101332.59;4967258;28;20470;-74
2024/01/14 03:40:07;;;;;;;14.30;11.05;;;;;;;17.44;36.96;101343.88;4967874;28;20038;-73
2024/01/14 03:42:32;;;;;;;14.90;10.35;;;;;;;17.55;36.76;101360.59;4967815;28;20534;-71
2024/01/14 03:44:57;;;;;;;13.63;9.45;;;;;;;17.53;36.82;101356.38;4967858;28;20031;-72
2024/01/14 03:47:22;;;;;;;13.90;10.17;;;;;;;17.55;36.84;101360.59;4967713;28;20059;-73
2024/01/14 03:49:48;;;;;;;15.25;10.15;;;;;;;17.53;36.83;101353.75;4968219;28;20264;-73
2024/01/14 03:52:13;;;;;;;13.23;9.65;;;;;;;17.52;36.85;101352.91;4967871;28;20034;-71
2024/01/14 03:54:39;;;;;;;12.07;9.40;;;;;;;17.53;37.05;101356.38;4971004;28;20387;-74
2024/01/14 03:57:04;;;;;;;14.60;10.32;;;;;;;17.46;36.68;101341.97;4970827;28;20076;-72
2024/01/14 03:59:29;;;;;;;13.27;9.85;;;;;;;17.51;36.53;101345.13;4970736;28;20031;-71
2024/01/14 04:01:55;;;;;;;14.73;10.15;;;;;;;17.50;36.84;101349.56;4969686;28;20081;-72
2024/01/14 04:04:20;;;;;;;12.68;9.45;;;;;;;17.40;36.82;101330.91;4970784;28;20380;-73
2024/01/14 04:06:45;;;;;;;12.55;9.95;;;;;;;17.45;36.70;101337.63;4970185;28;20035;-73
2024/01/14 04:09:11;;;;;;;12.48;9.45;;;;;;;17.47;36.74;101339.22;4970996;28;20035;-69
2024/01/14 04:11:36;;;;;;;12.23;9.60;;;;;;;17.37;36.30;101325.88;4971337;28;20563;-73
2024/01/14 04:14:02;;;;;;;13.98;9.43;;;;;;;17.39;36.80;101325.75;4971353;28;20476;-71
2024/01/14 04:16:35;;;;;;;13.95;10.15;;;;;;;17.37;36.38;101322.38;4970917;28;20499;-72
2024/01/14 04:19:01;;;;;;;12.68;9.10;;;;;;;17.42;36.62;101328.19;4971567;28;20042;-74
2024/01/14 04:21:26;;;;;;;12.70;9.82;;;;;;;17.36;36.37;101312.81;4970785;28;20035;-72
2024/01/14 04:23:51;;;;;;;12.85;9.40;;;;;;;17.44;36.74;101334.16;4971007;28;20133;-74
2024/01/14 04:26:21;;;;;;;12.23;9.65;;;;;;;17.44;36.25;101333.34;4970926;28;20030;-71
2024/01/14 04:28:47;;;;;;;13.80;9.90;;;;;;;17.44;36.30;101330.72;4971215;28;20038;-74
2024/01/14 04:31:12;;;;;;;13.07;9.90;;;;;;;17.41;36.23;101331.75;4971011;28;20062;-74
2024/01/14 04:33:38;;;;;;;12.48;9.68;;;;;;;17.40;36.25;101333.56;4970682;28;21000;-73
2024/01/14 04:36:04;;;;;;;12.13;8.98;;;;;;;17.34;36.03;101317.31;4970989;28;20169;-70
2024/01/14 04:38:29;;;;;;;13.13;10.15;;;;;;;17.33;36.08;101319.13;4970830;28;20121;-74
2024/01/14 04:40:55;;;;;;;13.77;10.18;;;;;;;17.32;36.29;101316.59;4970060;28;20422;-73
2024/01/14 04:43:20;;;;;;;12.65;9.65;;;;;;;17.39;36.51;101325.75;4969831;28;20536;-72
2024/01/14 04:45:46;;;;;;;11.52;9.43;;;;;;;17.36;36.23;101311.00;4970052;28;20039;-73
2024/01/14 04:48:11;;;;;;;13.57;9.30;;;;;;;17.27;36.42;101298.47;4969331;28;20050;-72
2024/01/14 04:50:39;;;;;;;12.75;9.43;;;;;;;17.35;36.38;101313.75;4968910;28;20038;-74
2024/01/14 04:53:04;;;;;;;11.95;9.20;;;;;;;17.28;36.57;101300.16;4968861;28;20038;-73
2024/01/14 04:55:30;;;;;;;13.05;9.48;;;;;;;17.33;36.63;101307.75;4969324;28;20039;-72
2024/01/14 04:57:56;;;;;;;12.45;8.65;;;;;;;17.27;36.40;101287.94;4969778;28;20035;-71
2024/01/14 05:00:22;;;;;;;12.63;9.00;;;;;;;17.26;36.51;101288.03;4969301;28;20424;-74
2024/01/14 05:02:47;;;;;;;12.70;8.50;;;;;;;17.33;36.45;101300.66;4968737;28;20035;-73
2024/01/14 05:05:13;;;;;;;12.13;8.93;;;;;;;17.32;36.93;101293.75;4968998;28;20399;-73
2024/01/14 05:07:39;;;;;;;12.23;8.70;;;;;;;17.34;36.81;101307.63;4969207;28;20116;-74
2024/01/14 05:10:04;;;;;;;10.85;8.35;;;;;;;17.25;36.69;101284.56;4969338;28;20134;-73
2024/01/14 05:12:30;;;;;;;11.75;8.40;;;;;;;17.26;36.92;101281.00;4969131;28;20097;-72
2024/01/14 05:14:55;;;;;;;14.02;9.05;;;;;;;17.22;36.98;101275.09;4968985;28;20050;-73
2024/01/14 05:17:20;;;;;;;10.35;8.40;;;;;;;17.30;37.12;101276.34;4968984;28;20056;-72
2024/01/14 05:19:45;;;;;;;11.98;8.32;;;;;;;17.22;36.99;101269.81;4969395;28;20039;-71
2024/01/14 05:22:11;;;;;;;11.50;8.10;;;;;;;17.26;36.90;101277.50;4969116;28;20531;-71
2024/01/14 05:24:36;;;;;;;13.75;9.40;;;;;;;17.27;36.75;101279.19;4969044;28;20122;-73
2024/01/14 05:27:01;;;;;;;11.98;8.07;;;;;;;17.27;36.98;101276.56;4968887;28;20421;-72
2024/01/14 05:29:27;;;;;;;11.07;7.95;;;;;;;17.27;37.27;101266.03;4968948;28;20407;-70
2024/01/14 05:31:52;;;;;;;12.47;8.00;;;;;;;17.29;37.40;101277.28;4968464;28;20076;-73
2024/01/14 05:34:17;;;;;;;13.57;8.40;;;;;;;17.21;37.22;101256.75;4968827;28;20260;-70
2024/01/14 05:36:42;;;;;;;11.32;7.85;;;;;;;17.30;37.19;101258.75;4968249;28;20293;-71
2024/01/14 05:39:08;;;;;;;11.20;6.97;;;;;;;17.30;37.39;101253.47;4968949;28;20066;-70
2024/01/14 05:41:33;;;;;;;9.25;5.68;;;;;;;17.39;38.11;101252.81;4968880;28;20117;-71
2024/01/14 05:43:58;;;;;;;11.13;5.80;;;;;;;17.48;38.47;101255.75;4968991;28;20030;-72
2024/01/14 05:46:23;;;;;;;9.30;5.57;;;;;;;17.45;38.42;101234.88;4967144;28;20911;-71
2024/01/14 05:48:49;;;;;;;8.88;5.43;;;;;;;17.56;38.84;101251.63;4932844;28;1060847;-69
2024/01/14 05:51:15;;;;;;;10.05;5.05;;;;;;;17.55;38.50;101236.75;4969759;28;20069;-71
2024/01/14 05:53:40;;;;;;;8.68;5.20;;;;;;;17.68;38.79;101254.31;4969539;28;20391;-73
2024/01/14 05:56:05;;;;;;;9.40;5.22;;;;;;;17.64;38.66;101240.53;4969011;28;20563;-72
2024/01/14 05:58:31;;;;;;;9.27;5.63;;;;;;;17.67;38.86;101236.78;4969449;28;20045;-70
2024/01/14 06:00:56;;;;;;;8.35;5.18;;;;;;;17.71;38.74;101230.34;4969128;28;20039;-72
2024/01/14 06:03:21;;;;;;;10.38;5.10;;;;;;;17.79;38.80;101242.97;4968541;28;20097;-74
2024/01/14 06:05:47;;;;;;;9.48;5.20;;;;;;;17.80;38.77;101234.97;4968862;28;20066;-71
2024/01/14 06:08:12;;;;;;;9.90;4.95;;;;;;;17.80;38.94;101224.41;4969296;28;20038;-72
2024/01/14 06:10:38;;;;;;;10.32;5.40;;;;;;;17.84;39.09;101215.31;4969234;28;20086;-73
2024/01/14 06:13:04;;;;;;;12.98;5.72;;;;;;;17.82;38.84;101213.75;4969359;28;20034;-71
2024/01/14 06:15:29;;;;;;;8.55;4.60;;;;;;;17.89;38.86;101225.56;4968132;28;20034;-73
2024/01/14 06:17:54;;;;;;;9.13;5.35;;;;;;;17.91;38.71;101223.63;4968988;28;20038;-73
2024/01/14 06:20:19;;;;;;;9.82;5.53;;;;;;;17.85;38.99;101201.19;4968823;28;20050;-71
2024/01/14 06:22:45;;;;;;;13.05;5.13;;;;;;;17.86;38.91;101208.13;4968735;28;20030;-73
2024/01/14 06:25:10;;;;;;;9.23;5.15;;;;;;;17.94;38.84;101219.00;4968096;28;20030;-71
2024/01/14 06:27:35;;;;;;;9.60;5.30;;;;;;;17.88;38.63;101206.25;4968751;28;20037;-74
2024/01/14 06:30:02;;;;;;;9.48;5.13;;;;;;;17.91;38.93;101208.66;4968641;28;20399;-73
2024/01/14 06:32:28;;;;;;;9.13;5.18;;;;;;;17.92;38.77;101210.34;4968793;28;20030;-72
2024/01/14 06:34:53;;;;;;;10.17;4.93;;;;;;;17.92;38.60;101199.78;4968906;28;20054;-74
2024/01/14 06:37:18;;;;;;;11.85;5.22;;;;;;;17.90;38.78;101196.44;4968787;28;20275;-73
2024/01/14 06:39:44;;;;;;;9.43;5.57;;;;;;;17.89;38.93;101183.34;4968520;28;20046;-74
2024/01/14 06:42:10;;;;;;;9.50;5.32;;;;;;;17.92;39.08;101185.78;4968691;28;20054;-71
2024/01/14 06:44:38;;;;;;;7.07;4.72;;;;;;;17.98;39.00;101184.47;4968286;28;20046;-74
2024/01/14 06:47:03;;;;;;;9.35;4.80;;;;;;;18.05;39.19;101196.22;4968584;28;20078;-73
2024/01/14 06:49:29;;;;;;;9.85;4.60;;;;;;;17.98;38.93;101179.22;4968569;28;20613;-74
2024/01/14 06:51:54;;;;;;;9.35;5.18;;;;;;;18.04;39.21;101186.63;4968420;28;20034;-73
2024/01/14 06:54:19;;;;;;;7.45;4.60;;;;;;;18.01;38.94;101178.94;4968734;28;20038;-73
2024/01/14 06:56:46;;;;;;;7.10;4.75;;;;;;;18.08;38.90;101188.91;4968258;28;20046;-74
2024/01/14 06:59:18;;;;;;;8.73;4.43;;;;;;;18.08;38.97;101186.28;4968630;28;20027;-74
2024/01/14 07:01:44;;;;;;;7.40;4.68;;;;;;;18.08;39.15;101180.19;4967654;28;20023;-72
2024/01/14 07:04:09;;;;;;;14.10;5.18;;;;;;;18.02;39.16;101164.81;4968311;28;20051;-75
2024/01/14 07:06:34;;;;;;;12.93;4.95;;;;;;;18.01;38.91;101155.22;4968171;28;20035;-73
2024/01/14 07:08:59;;;;;;;10.10;4.80;;;;;;;18.04;38.95;101158.47;4968815;28;20031;-74
2024/01/14 07:11:25;;;;;;;8.90;5.03;;;;;;;18.12;39.09;101176.38;4968200;28;20039;-71
2024/01/14 07:13:50;;;;;;;8.10;4.80;;;;;;;18.11;39.11;101172.03;4968388;28;20165;-71
2024/01/14 07:16:15;;;;;;;8.38;4.35;;;;;;;18.07;38.94;101168.81;4967497;28;20085;-71
2024/01/14 07:18:40;;;;;;;10.85;4.72;;;;;;;18.16;39.12;101176.97;4968535;28;20081;-70
2024/01/14 07:21:08;;;;;;;10.52;4.40;;;;;;;18.16;39.28;101183.06;4968277;28;20038;-72
2024/01/14 07:23:33;;;;;;;9.80;4.88;;;;;;;18.12;38.97;101171.09;4968271;28;20117;-71
2024/01/14 07:25:59;;;;;;;11.43;4.87;;;;;;;18.18;39.15;101188.22;4967998;28;20069;-74
2024/01/14 07:28:25;;;;;;;10.85;4.85;;;;;;;18.16;38.96;101180.44;4967255;28;20299;-72
2024/01/14 07:30:50;;;;;;;8.88;4.68;;;;;;;18.13;39.22;101170.13;4966513;28;20039;-70
2024/01/14 07:33:15;;;;;;;7.32;4.50;;;;;;;18.19;39.22;101174.94;4968154;28;20666;-74
2024/01/14 07:35:40;;;;;;;9.68;5.10;;;;;;;18.13;39.01;101165.69;4966417;28;20042;-72
2024/01/14 07:38:06;;;;;;;11.73;4.95;;;;;;;18.20;39.02;101175.75;4967533;28;20471;-72
2024/01/14 07:40:31;;;;;;;10.52;4.70;;;;;;;18.12;39.21;101161.38;4967761;28;20532;-71
2024/01/14 07:42:56;;;;;;;10.80;5.10;;;;;;;18.22;39.05;101165.94;4967340;28;20077;-73
2024/01/14 07:45:21;;;;;;;11.57;5.83;;;;;;;18.16;39.08;101161.13;4967794;28;20269;-71
2024/01/14 07:47:47;;;;;;;13.55;5.60;;;;;;;18.24;39.18;101167.50;4967371;28;20804;-72
2024/01/14 07:50:12;;;;;;;7.35;4.50;;;;;;;18.25;39.21;101171.00;4968054;28;20038;-73
2024/01/14 07:52:37;;;;;;;8.82;5.25;;;;;;;18.23;38.97;101167.59;4967518;28;20492;-70
2024/01/14 07:55:03;;;;;;;12.88;5.85;;;;;;;18.16;38.89;101159.34;4967651;28;20089;-73
2024/01/14 07:57:29;;;;;;;9.98;5.65;;;;;;;18.21;38.72;101162.44;4967090;28;20114;-71
2024/01/14 07:59:54;;;;;;;10.73;5.50;;;;;;;18.22;38.68;101164.13;4966689;28;20143;-70
2024/01/14 08:02:19;;;;;;;11.25;5.50;;;;;;;18.13;39.10;101144.59;4965913;28;20030;-72
2024/01/14 08:04:44;;;;;;;9.00;5.15;;;;;;;18.25;39.56;101165.72;4965302;28;20046;-72
2024/01/14 08:07:10;;;;;;;9.73;5.03;;;;;;;18.15;39.88;101149.75;4965035;28;20427;-71
2024/01/14 08:09:35;;;;;;;9.75;4.88;;;;;;;18.23;39.73;101157.91;4964889;28;20033;-71
2024/01/14 08:12:01;;;;;;;9.65;5.38;;;;;;;18.25;39.59;101157.81;4967004;28;20026;-72
2024/01/14 08:14:26;;;;;;;10.00;5.35;;;;;;;18.24;39.85;101156.94;4967052;28;20035;-73
2024/01/14 08:16:51;;;;;;;10.02;5.07;;;;;;;18.20;40.01;101147.59;4967698;28;20078;-71
2024/01/14 08:19:19;;;;;;;8.63;4.93;;;;;;;18.20;40.10;101152.00;4967462;28;20763;-72
2024/01/14 08:21:44;;;;;;;9.20;4.70;;;;;;;18.18;40.02;101133.66;4967710;28;20074;-70
2024/01/14 08:24:10;;;;;;;8.63;4.57;;;;;;;18.29;39.98;101154.81;4967212;28;20081;-72
2024/01/14 08:26:45;;;;;;;9.33;4.40;;;;;;;18.23;40.28;101149.16;4967443;28;20341;-72
2024/01/14 08:29:12;;;;;;;10.88;4.80;;;;;;;18.23;40.01;101151.78;4966562;28;20288;-71
2024/01/14 08:31:38;;;;;;;11.88;4.53;;;;;;;18.29;40.13;101157.44;4967461;28;20039;-72
2024/01/14 08:34:04;;;;;;;9.05;4.65;;;;;;;18.31;40.10;101163.44;4967915;28;20038;-72
2024/01/14 08:36:31;;;;;;;9.73;4.88;;;;;;;18.31;40.32;101159.97;4967001;28;20035;-72
2024/01/14 08:38:56;;;;;;;10.73;4.82;;;;;;;18.28;40.44;101155.75;4968286;28;20476;-72
2024/01/14 08:41:24;;;;;;;9.85;4.82;;;;;;;18.25;40.46;101148.06;4970098;28;20038;-72
2024/01/14 08:43:52;;;;;;;14.10;5.68;;;;;;;18.34;40.44;101159.75;4969188;28;20031;-71
2024/01/14 08:46:18;;;;;;;14.80;5.13;;;;;;;18.35;40.71;101156.13;4970054;28;20057;-69
2024/01/14 08:48:43;;;;;;;12.63;5.15;;;;;;;18.36;40.65;101154.31;4969266;28;20484;-72
2024/01/14 08:51:09;;;;;;;8.70;5.05;;;;;;;18.34;40.69;101157.09;4969854;28;20054;-72
2024/01/14 08:53:35;;;;;;;8.50;4.97;;;;;;;18.27;40.88;101140.88;4968885;28;20041;-71
2024/01/14 08:56:00;;;;;;;9.23;4.65;;;;;;;18.36;40.91;101152.53;4970673;28;20476;-73
2024/01/14 08:58:25;;;;;;;11.00;5.15;;;;;;;18.37;40.54;101148.91;4971243;28;20046;-70
2024/01/14 09:00:51;;;;;;;13.07;5.57;;;;;;;18.25;40.11;101139.34;4966499;28;20043;-71
2024/01/14 09:03:17;;;;;;;10.52;5.43;;;;;;;18.36;40.21;101154.31;4968913;28;20499;-70
2024/01/14 09:05:42;;;;;;;12.50;6.05;;;;;;;18.37;39.89;101148.09;4970191;28;20034;-73
2024/01/14 09:08:08;;;;;;;9.80;5.30;;;;;;;18.29;40.07;101138.97;4970157;28;20117;-70
2024/01/14 09:10:34;;;;;;;11.07;5.35;;;;;;;18.31;39.92;101142.34;4969822;28;20039;-67
2024/01/14 09:12:59;;;;;;;11.70;5.70;;;;;;;18.39;39.97;101154.06;4968613;28;20042;-70
2024/01/14 09:15:24;;;;;;;10.60;5.18;;;;;;;18.38;39.87;101150.59;4969362;28;20306;-73
2024/01/14 09:17:51;;;;;;;12.25;5.55;;;;;;;18.32;39.69;101137.88;4969597;28;20031;-69
2024/01/14 09:20:16;;;;;;;14.10;5.80;;;;;;;18.38;39.85;101140.06;4969367;28;20031;-71
2024/01/14 09:22:42;;;;;;;9.10;5.38;;;;;;;18.30;40.09;101127.44;4969555;28;20043;-71
2024/01/14 09:25:07;;;;;;;11.38;5.53;;;;;;;18.43;39.84;101139.69;4969306;28;20045;-70
2024/01/14 09:27:34;;;;;;;11.98;5.35;;;;;;;18.34;40.01;101119.28;4969428;28;20034;-68
2024/01/14 09:30:00;;;;;;;9.88;5.10;;;;;;;18.34;39.97;101116.66;4969894;28;20034;-71
2024/01/14 09:32:25;;;;;;;10.63;5.10;;;;;;;18.46;40.18;101135.00;4952024;28;20034;-72
2024/01/14 09:34:50;;;;;;;11.93;5.93;;;;;;;18.39;39.92;101115.34;4969526;28;20098;-70
2024/01/14 09:37:16;;;;;;;15.63;6.57;;;;;;;18.50;40.22;101130.34;4969862;28;20086;-73
2024/01/14 09:39:41;;;;;;;10.45;5.57;;;;;;;18.42;40.04;101112.47;4969848;28;20109;-69
2024/01/14 09:42:22;;;;;;;9.98;5.47;;;;;;;18.53;40.07;101122.16;4969210;28;20097;-70
2024/01/14 09:44:57;;;;;;;10.43;5.50;;;;;;;18.52;39.99;101115.22;4969223;28;20499;-71
2024/01/14 09:47:23;;;;;;;13.52;6.00;;;;;;;18.54;39.97;101115.94;4969035;28;20039;-70
2024/01/14 09:49:48;;;;;;;12.07;6.32;;;;;;;18.55;39.95;101116.78;4968385;28;20034;-74
2024/01/14 09:52:14;;;;;;;13.95;6.70;;;;;;;18.55;39.65;101114.13;4968451;28;21170;-71
2024/01/14 09:54:39;;;;;;;13.00;6.20;;;;;;;18.55;39.72;101106.22;4969278;28;20047;-69
2024/01/14 09:57:12;;;;;;;14.45;7.03;;;;;;;18.46;39.18;101092.78;4968919;28;20475;-72
2024/01/14 09:59:39;;;;;;;12.40;6.32;;;;;;;18.54;38.98;101112.47;4969914;28;20039;-70
2024/01/14 10:02:06;;;;;;;12.45;6.57;;;;;;;18.54;39.29;101107.19;4969498;28;20095;-72
2024/01/14 10:04:31;;;;;;;14.50;6.32;;;;;;;18.56;39.35;101110.53;4970166;28;20394;-69
2024/01/14 10:06:58;;;;;;;14.75;6.53;;;;;;;18.56;39.54;101110.53;4969681;28;20034;-71
2024/01/14 10:09:23;;;;;;;13.32;6.03;;;;;;;18.52;39.54;101106.44;4969420;28;20030;-73
2024/01/14 10:11:49;;;;;;;13.18;6.28;;;;;;;18.46;39.66;101098.06;4969525;28;20037;-71
2024/01/14 10:14:15;;;;;;;11.20;6.30;;;;;;;18.58;39.69;101116.53;4967990;28;20042;-73
2024/01/14 10:16:41;;;;;;;12.55;6.80;;;;;;;18.48;39.64;101090.88;4970102;28;20476;-72
2024/01/14 10:19:07;;;;;;;11.52;6.18;;;;;;;18.52;39.75;101095.91;4969692;28;20019;-69
2024/01/14 10:21:32;;;;;;;14.23;6.05;;;;;;;18.52;39.94;101085.34;4969793;28;20038;-70
2024/01/14 10:23:59;;;;;;;13.25;6.30;;;;;;;18.53;39.85;101082.56;4969226;28;20062;-73
2024/01/14 10:26:24;;;;;;;13.68;6.30;;;;;;;18.62;40.07;101092.41;4968611;28;20061;-71
2024/01/14 10:28:50;;;;;;;11.57;6.22;;;;;;;18.54;39.88;101079.00;4968175;28;20035;-71
2024/01/14 10:31:15;;;;;;;10.80;5.72;;;;;;;18.55;40.08;101071.91;4968320;28;20058;-70
2024/01/14 10:33:40;;;;;;;11.52;5.10;;;;;;;18.55;40.11;101074.53;4967673;28;20770;-71
2024/01/14 10:36:13;;;;;;;10.90;5.75;;;;;;;18.55;39.96;101074.53;4967521;28;20048;-69
2024/01/14 10:38:38;;;;;;;11.52;5.40;;;;;;;18.54;40.01;101062.31;4968312;28;20039;-70
2024/01/14 10:41:03;;;;;;;13.07;5.13;;;;;;;18.53;40.04;101056.19;4968811;28;20089;-72
2024/01/14 10:43:29;;;;;;;9.60;5.28;;;;;;;18.60;39.95;101072.41;4969408;28;20277;-72
2024/01/14 10:45:57;;;;;;;12.82;5.28;;;;;;;18.56;39.79;101069.13;4970631;28;20498;-71
2024/01/14 10:48:27;;;;;;;11.38;5.50;;;;;;;18.54;39.84;101070.25;4970660;28;20046;-73
2024/01/14 10:50:57;;;;;;;11.52;5.57;;;;;;;18.58;39.82;101069.03;4969462;28;20365;-71
2024/01/14 10:53:24;;;;;;;11.93;6.13;;;;;;;18.53;39.84;101050.91;4970738;28;20368;-70
2024/01/14 10:56:00;;;;;;;10.43;5.32;;;;;;;18.46;39.79;101042.66;4969926;28;20077;-69
2024/01/14 10:58:29;;;;;;;12.25;5.35;;;;;;;18.54;39.44;101055.25;4970235;28;20074;-74
2024/01/14 11:01:02;;;;;;;11.73;5.90;;;;;;;18.53;39.72;101045.63;4969460;28;20593;-71
2024/01/14 11:03:29;;;;;;;9.50;5.57;;;;;;;18.44;39.58;101033.19;4967631;28;20037;-73
2024/01/14 11:05:55;;;;;;;9.95;5.70;;;;;;;18.48;39.58;101035.47;4968722;28;20117;-72
2024/01/14 11:08:21;;;;;;;10.65;5.82;;;;;;;18.43;39.62;101015.66;4968451;28;20113;-71
2024/01/14 11:10:48;;;;;;;11.10;5.68;;;;;;;18.48;39.45;101014.34;4967766;28;20034;-70